Time,TemperatureF,DewpointF,PressureIn,WindDirection,WindDirectionDegrees,WindSpeedMPH,WindSpeedGustMPH,Humidity,HourlyPrecipIn,Conditions,Clouds,dailyrainin,SoftwareType,DateUTC
2013-05-25 15:52:00,62.8,61.9,29.65,ENE,68,2.7,2.7,97,0.37,,SKC,0.50,VWS V14.01,2013-05-25 19:52:00,
2013-05-25 15:54:00,62.8,61.9,29.74,ENE,68,2.7,2.7,97,0.00,,SKC,0.50,VWS V14.01,2013-05-25 19:54:00,
2013-05-25 15:57:00,62.8,61.9,29.65,ENE,68,2.7,2.7,97,0.37,,SKC,0.50,VWS V14.01,2013-05-25 19:57:00,
2013-05-25 15:58:00,62.8,61.9,29.74,ENE,68,2.7,2.7,97,0.00,,SKC,0.50,VWS V14.01,2013-05-25 19:58:00,
2013-05-25 16:00:00,62.8,61.9,29.76,ENE,68,2.7,2.7,97,0.00,,SKC,0.50,VWS V14.01,2013-05-25 20:00:00,
2013-05-25 16:02:00,49.6,43.4,29.76,ENE,68,2.7,2.7,79,0.00,,SKC,0.50,VWS V14.01,2013-05-25 20:02:00,
2013-05-25 16:04:00,49.6,43.4,29.76,ENE,68,2.7,2.7,79,0.00,,SKC,0.50,VWS V14.01,2013-05-25 20:04:00,
2013-05-25 16:06:00,49.6,42.7,29.76,ENE,68,2.7,2.7,77,0.00,,SKC,0.50,VWS V14.01,2013-05-25 20:06:00,
2013-05-25 16:07:00,49.6,43.1,29.76,ENE,68,2.7,2.7,78,0.00,,SKC,0.50,VWS V14.01,2013-05-25 20:07:00,
2013-05-25 16:08:00,49.5,42.6,29.76,ENE,68,2.7,2.7,77,0.00,,SKC,0.50,VWS V14.01,2013-05-25 20:08:00,
2013-05-25 16:10:00,49.6,42.0,29.76,ENE,68,2.7,2.7,75,0.00,,SKC,0.50,VWS V14.01,2013-05-25 20:10:00,
2013-05-25 16:12:00,49.5,41.9,29.76,ENE,68,2.7,2.7,75,0.00,,SKC,0.50,VWS V14.01,2013-05-25 20:12:00,
2013-05-25 16:14:00,49.5,41.9,29.76,ENE,68,2.7,2.7,75,0.00,,SKC,0.50,VWS V14.01,2013-05-25 20:14:00,
2013-05-25 16:16:00,49.5,41.9,29.76,ENE,68,2.7,2.7,75,0.00,,SKC,0.50,VWS V14.01,2013-05-25 20:16:00,
2013-05-25 16:17:00,49.5,41.9,29.76,ENE,68,2.7,2.7,75,0.00,,SKC,0.50,VWS V14.01,2013-05-25 20:17:00,
2013-05-25 16:18:00,49.3,41.4,29.76,ENE,68,2.7,2.7,74,0.00,,SKC,0.50,VWS V14.01,2013-05-25 20:18:00,
2013-05-25 16:20:00,49.3,41.7,29.76,ENE,68,2.7,2.7,75,0.00,,SKC,0.50,VWS V14.01,2013-05-25 20:20:00,
2013-05-25 16:22:00,49.3,42.0,29.76,ENE,68,2.7,2.7,76,0.00,,SKC,0.50,VWS V14.01,2013-05-25 20:22:00,
2013-05-25 16:24:00,49.3,42.7,29.76,ENE,68,2.7,2.7,78,0.00,,SKC,0.50,VWS V14.01,2013-05-25 20:24:00,
2013-05-25 16:26:00,49.1,42.2,29.76,ENE,68,2.7,2.7,77,0.00,,SKC,0.50,VWS V14.01,2013-05-25 20:26:00,
2013-05-25 16:27:00,49.3,43.0,29.76,ENE,68,2.7,2.7,79,0.00,,SKC,0.50,VWS V14.01,2013-05-25 20:27:00,
2013-05-25 16:28:00,49.3,43.0,29.76,ENE,68,2.7,2.7,79,0.00,,SKC,0.50,VWS V14.01,2013-05-25 20:28:00,
2013-05-25 16:30:00,49.1,42.5,29.76,ENE,68,2.7,2.7,78,0.00,,SKC,0.50,VWS V14.01,2013-05-25 20:30:00,
2013-05-25 16:32:00,49.1,42.9,29.76,ENE,68,2.7,2.7,79,0.00,,SKC,0.50,VWS V14.01,2013-05-25 20:32:00,
2013-05-25 16:34:00,49.1,42.9,29.76,ENE,68,2.7,2.7,79,0.00,,SKC,0.50,VWS V14.01,2013-05-25 20:34:00,
2013-05-25 16:36:00,49.1,42.5,29.76,ENE,68,2.7,2.7,78,0.00,,SKC,0.50,VWS V14.01,2013-05-25 20:36:00,
2013-05-25 16:37:00,48.9,42.0,29.76,ENE,68,2.7,2.7,77,0.00,,SKC,0.50,VWS V14.01,2013-05-25 20:37:00,
2013-05-25 16:38:00,48.9,41.7,29.76,ENE,68,2.7,2.7,76,0.00,,SKC,0.50,VWS V14.01,2013-05-25 20:38:00,
2013-05-25 16:40:00,48.9,42.0,29.76,ENE,68,2.7,2.7,77,0.00,,SKC,0.50,VWS V14.01,2013-05-25 20:40:00,
2013-05-25 16:42:00,48.9,43.0,29.76,ENE,68,2.7,2.7,80,0.00,,SKC,0.50,VWS V14.01,2013-05-25 20:42:00,
2013-05-25 16:44:00,48.9,43.0,29.76,ENE,68,2.7,2.7,80,0.00,,SKC,0.50,VWS V14.01,2013-05-25 20:44:00,
2013-05-25 16:46:00,48.9,43.0,29.76,ENE,68,2.7,2.7,80,0.00,,SKC,0.50,VWS V14.01,2013-05-25 20:46:00,
2013-05-25 16:47:00,49.1,43.5,29.76,ENE,68,2.7,2.7,81,0.00,,SKC,0.50,VWS V14.01,2013-05-25 20:47:00,
2013-05-25 16:48:00,49.1,43.2,29.76,ENE,68,2.7,2.7,80,0.00,,SKC,0.50,VWS V14.01,2013-05-25 20:48:00,
2013-05-25 16:50:00,49.1,43.2,29.76,ENE,68,2.7,2.7,80,0.00,,SKC,0.50,VWS V14.01,2013-05-25 20:50:00,
2013-05-25 16:52:00,48.9,43.3,29.76,ENE,68,2.7,2.7,81,0.00,,SKC,0.50,VWS V14.01,2013-05-25 20:52:00,
2013-05-25 16:54:00,48.9,43.3,29.76,ENE,68,2.7,2.7,81,0.00,,SKC,0.50,VWS V14.01,2013-05-25 20:54:00,
2013-05-25 16:56:00,48.9,43.3,29.76,ENE,68,2.7,2.7,81,0.00,,SKC,0.50,VWS V14.01,2013-05-25 20:56:00,
2013-05-25 16:57:00,48.7,43.5,29.76,ENE,68,2.7,2.7,82,0.00,,SKC,0.13,VWS V14.01,2013-05-25 20:57:00,
2013-05-25 16:58:00,48.7,43.5,29.76,ENE,68,2.7,2.7,82,0.00,,SKC,0.50,VWS V14.01,2013-05-25 20:58:00,
2013-05-25 17:00:00,48.9,43.3,29.76,ENE,68,2.7,2.7,81,0.00,,SKC,0.50,VWS V14.01,2013-05-25 21:00:00,
2013-05-25 17:02:00,48.9,43.3,29.76,ENE,68,2.7,2.7,81,0.00,,SKC,0.50,VWS V14.01,2013-05-25 21:02:00,
2013-05-25 17:04:00,48.9,43.7,29.76,ENE,68,2.7,2.7,82,0.00,,SKC,0.50,VWS V14.01,2013-05-25 21:04:00,
2013-05-25 17:06:00,49.1,43.5,29.76,ENE,68,2.7,2.7,81,0.00,,SKC,0.50,VWS V14.01,2013-05-25 21:06:00,
2013-05-25 17:07:00,49.1,43.2,29.76,ENE,68,2.7,2.7,80,0.00,,SKC,0.50,VWS V14.01,2013-05-25 21:07:00,
2013-05-25 17:08:00,49.1,43.2,29.76,ENE,68,2.7,2.7,80,0.04,,SKC,0.54,VWS V14.01,2013-05-25 21:08:00,
2013-05-25 17:10:00,49.1,41.9,29.76,ENE,68,2.7,2.7,76,0.04,,SKC,0.54,VWS V14.01,2013-05-25 21:10:00,
2013-05-25 17:12:00,49.1,42.2,29.76,ENE,68,2.7,2.7,77,0.04,,SKC,0.54,VWS V14.01,2013-05-25 21:12:00,
2013-05-25 17:14:00,48.9,42.0,29.76,ENE,68,2.7,2.7,77,0.04,,SKC,0.54,VWS V14.01,2013-05-25 21:14:00,
2013-05-25 17:16:00,48.9,42.7,29.76,ENE,68,2.7,2.7,79,0.04,,SKC,0.54,VWS V14.01,2013-05-25 21:16:00,
2013-05-25 17:17:00,49.1,43.2,29.76,ENE,68,2.7,2.7,80,0.04,,SKC,0.54,VWS V14.01,2013-05-25 21:17:00,
2013-05-25 17:18:00,49.1,43.2,29.76,ENE,68,2.7,2.7,80,0.04,,SKC,0.54,VWS V14.01,2013-05-25 21:18:00,
2013-05-25 17:20:00,49.1,43.5,29.76,ENE,68,2.7,2.7,81,0.04,,SKC,0.54,VWS V14.01,2013-05-25 21:20:00,
2013-05-25 17:22:00,48.9,43.0,29.76,ENE,68,2.7,2.7,80,0.04,,SKC,0.54,VWS V14.01,2013-05-25 21:22:00,
2013-05-25 17:24:00,48.9,43.0,29.76,ENE,68,2.7,2.7,80,0.04,,SKC,0.54,VWS V14.01,2013-05-25 21:24:00,
2013-05-25 17:26:00,48.9,43.3,29.76,ENE,68,2.7,2.7,81,0.04,,SKC,0.54,VWS V14.01,2013-05-25 21:26:00,
2013-05-25 17:27:00,49.1,42.9,29.79,ENE,68,2.7,2.7,79,0.04,,SKC,0.13,VWS V14.01,2013-05-25 21:27:00,
2013-05-25 17:28:00,49.1,42.5,29.80,ENE,68,2.7,2.7,78,0.04,,SKC,0.54,VWS V14.01,2013-05-25 21:28:00,
2013-05-25 17:30:00,49.1,41.9,29.80,ENE,68,2.7,2.7,76,0.04,,SKC,0.54,VWS V14.01,2013-05-25 21:30:00,
2013-05-25 17:32:00,48.9,41.0,29.79,ENE,68,2.7,2.7,74,0.04,,SKC,0.54,VWS V14.01,2013-05-25 21:32:00,
2013-05-25 17:34:00,48.9,41.7,29.80,ENE,68,2.7,2.7,76,0.04,,SKC,0.54,VWS V14.01,2013-05-25 21:34:00,
2013-05-25 17:36:00,48.9,42.4,29.80,ENE,68,2.7,2.7,78,0.04,,SKC,0.54,VWS V14.01,2013-05-25 21:36:00,
2013-05-25 17:37:00,48.9,42.0,29.79,ENE,68,2.7,2.7,77,0.04,,SKC,0.54,VWS V14.01,2013-05-25 21:37:00,
2013-05-25 17:38:00,48.9,42.0,29.80,ENE,68,2.7,2.7,77,0.04,,SKC,0.54,VWS V14.01,2013-05-25 21:38:00,
2013-05-25 17:40:00,48.9,41.4,29.80,ENE,68,2.7,2.7,75,0.04,,SKC,0.54,VWS V14.01,2013-05-25 21:40:00,
2013-05-25 17:42:00,48.9,41.7,29.79,ENE,68,2.7,2.7,76,0.04,,SKC,0.54,VWS V14.01,2013-05-25 21:42:00,
2013-05-25 17:44:00,48.9,41.7,29.80,ENE,68,2.7,2.7,76,0.04,,SKC,0.54,VWS V14.01,2013-05-25 21:44:00,
2013-05-25 17:46:00,48.7,41.5,29.80,ENE,68,2.7,2.7,76,0.04,,SKC,0.54,VWS V14.01,2013-05-25 21:46:00,
2013-05-25 17:47:00,48.7,41.5,29.79,ENE,68,2.7,2.7,76,0.04,,SKC,0.54,VWS V14.01,2013-05-25 21:47:00,
2013-05-25 17:48:00,48.7,41.5,29.80,ENE,68,2.7,2.7,76,0.04,,SKC,0.54,VWS V14.01,2013-05-25 21:48:00,
2013-05-25 17:50:00,48.7,41.5,29.80,ENE,68,2.7,2.7,76,0.04,,SKC,0.54,VWS V14.01,2013-05-25 21:50:00,
2013-05-25 17:52:00,48.6,41.0,29.79,ENE,68,2.7,2.7,75,0.04,,SKC,0.54,VWS V14.01,2013-05-25 21:52:00,
2013-05-25 17:54:00,48.6,41.3,29.80,ENE,68,2.7,2.7,76,0.04,,SKC,0.54,VWS V14.01,2013-05-25 21:54:00,
2013-05-25 17:56:00,48.6,40.7,29.80,ENE,68,2.7,2.7,74,0.04,,SKC,0.54,VWS V14.01,2013-05-25 21:56:00,
2013-05-25 17:57:00,48.6,40.3,29.79,ENE,68,2.7,2.7,73,0.04,,SKC,0.54,VWS V14.01,2013-05-25 21:57:00,
2013-05-25 17:58:00,48.6,40.3,29.80,ENE,68,2.7,2.7,73,0.04,,SKC,0.54,VWS V14.01,2013-05-25 21:58:00,
2013-05-25 18:00:00,48.6,40.3,29.80,ENE,68,2.7,2.7,73,0.04,,SKC,0.54,VWS V14.01,2013-05-25 22:00:00,
2013-05-25 18:02:00,48.6,40.3,29.79,ENE,68,2.7,2.7,73,0.04,,SKC,0.54,VWS V14.01,2013-05-25 22:02:00,
2013-05-25 18:04:00,48.6,40.3,29.80,ENE,68,2.7,2.7,73,0.04,,SKC,0.54,VWS V14.01,2013-05-25 22:04:00,
2013-05-25 18:06:00,48.6,40.3,29.80,ENE,68,2.7,2.7,73,0.04,,SKC,0.54,VWS V14.01,2013-05-25 22:06:00,
2013-05-25 18:07:00,48.6,40.7,29.79,ENE,68,2.7,2.7,74,0.04,,SKC,0.54,VWS V14.01,2013-05-25 22:07:00,
2013-05-25 18:08:00,48.6,40.7,29.80,ENE,68,2.7,2.7,74,0.04,,SKC,0.54,VWS V14.01,2013-05-25 22:08:00,
2013-05-25 18:10:00,48.6,40.7,29.80,NW,315,22.4,22.4,74,0.00,,SKC,0.54,VWS V14.01,2013-05-25 22:10:00,
2013-05-25 18:12:00,48.6,41.0,29.79,NW,315,22.4,22.4,75,0.00,,SKC,0.54,VWS V14.01,2013-05-25 22:12:00,
2013-05-25 18:14:00,48.6,40.7,29.80,NW,315,22.4,22.4,74,0.00,,SKC,0.54,VWS V14.01,2013-05-25 22:14:00,
2013-05-25 18:16:00,48.7,41.2,29.80,NW,315,22.4,22.4,75,0.00,,SKC,0.54,VWS V14.01,2013-05-25 22:16:00,
2013-05-25 18:17:00,48.7,41.5,29.79,NW,315,22.4,22.4,76,0.00,,SKC,0.54,VWS V14.01,2013-05-25 22:17:00,
2013-05-25 18:18:00,48.7,41.5,29.80,NW,315,22.4,22.4,76,0.00,,SKC,0.54,VWS V14.01,2013-05-25 22:18:00,
2013-05-25 18:20:00,48.7,41.5,29.80,NW,315,22.4,22.4,76,0.00,,SKC,0.54,VWS V14.01,2013-05-25 22:20:00,
2013-05-25 18:22:00,48.7,41.2,29.79,NW,315,22.4,22.4,75,0.00,,SKC,0.54,VWS V14.01,2013-05-25 22:22:00,
2013-05-25 18:24:00,48.6,41.3,29.80,NW,315,22.4,22.4,76,0.00,,SKC,0.54,VWS V14.01,2013-05-25 22:24:00,
2013-05-25 18:26:00,48.6,41.0,29.80,NW,315,22.4,22.4,75,0.00,,SKC,0.54,VWS V14.01,2013-05-25 22:26:00,
2013-05-25 18:27:00,48.6,41.3,29.79,NW,315,22.4,22.4,76,0.00,,SKC,0.54,VWS V14.01,2013-05-25 22:27:00,
2013-05-25 18:28:00,48.6,41.3,29.80,NW,315,22.4,22.4,76,0.00,,SKC,0.54,VWS V14.01,2013-05-25 22:28:00,
2013-05-25 18:30:00,48.4,40.5,29.80,NW,315,11.4,22.4,74,0.00,,SKC,0.54,VWS V14.01,2013-05-25 22:30:00,
2013-05-25 18:32:00,48.4,40.5,29.79,NW,315,11.4,11.4,74,0.00,,SKC,0.54,VWS V14.01,2013-05-25 22:32:00,
2013-05-25 18:34:00,48.4,39.8,29.80,NW,315,11.4,11.4,72,0.00,,SKC,0.54,VWS V14.01,2013-05-25 22:34:00,
2013-05-25 18:36:00,48.4,40.1,29.80,NW,315,11.4,11.4,73,0.00,,SKC,0.54,VWS V14.01,2013-05-25 22:36:00,
2013-05-25 18:37:00,48.4,40.1,29.79,NW,315,11.4,11.4,73,0.00,,SKC,0.54,VWS V14.01,2013-05-25 22:37:00,
2013-05-25 18:38:00,48.4,40.1,29.80,NW,315,11.4,11.4,73,0.00,,SKC,0.54,VWS V14.01,2013-05-25 22:38:00,
2013-05-25 18:40:00,48.4,40.8,29.80,NW,315,11.4,11.4,75,0.00,,SKC,0.54,VWS V14.01,2013-05-25 22:40:00,
2013-05-25 18:42:00,48.4,40.5,29.80,NW,315,11.4,11.4,74,0.00,,SKC,0.54,VWS V14.01,2013-05-25 22:42:00,
2013-05-25 18:43:00,48.4,40.5,29.79,NW,315,11.4,11.4,74,0.00,,SKC,0.54,VWS V14.01,2013-05-25 22:43:00,
2013-05-25 18:44:00,48.4,40.5,29.80,NW,315,17.7,17.7,74,0.00,,SKC,0.54,VWS V14.01,2013-05-25 22:44:00,
2013-05-25 18:46:00,48.4,40.5,29.80,NW,315,17.7,17.7,74,0.00,,SKC,0.54,VWS V14.01,2013-05-25 22:46:00,
2013-05-25 18:48:00,48.4,40.5,29.79,NW,315,17.7,17.7,74,0.00,,SKC,0.54,VWS V14.01,2013-05-25 22:48:00,
2013-05-25 18:50:00,48.4,40.8,29.80,NW,315,17.7,17.7,75,0.00,,SKC,0.54,VWS V14.01,2013-05-25 22:50:00,
2013-05-25 18:52:00,48.4,40.8,29.80,NW,315,17.7,17.7,75,0.00,,SKC,0.54,VWS V14.01,2013-05-25 22:52:00,
2013-05-25 18:53:00,48.6,41.3,29.79,NW,315,17.7,17.7,76,0.00,,SKC,0.54,VWS V14.01,2013-05-25 22:53:00,
2013-05-25 18:54:00,48.4,41.2,29.80,NW,315,17.7,17.7,76,0.00,,SKC,0.54,VWS V14.01,2013-05-25 22:54:00,
2013-05-25 18:56:00,48.6,41.3,29.80,NW,315,17.7,17.7,76,0.00,,SKC,0.54,VWS V14.01,2013-05-25 22:56:00,
2013-05-25 18:58:00,48.6,41.3,29.76,WNW,292,9.8,17.7,76,0.00,,SKC,0.54,VWS V14.01,2013-05-25 22:58:00,
2013-05-25 19:00:00,48.6,41.3,29.76,WNW,292,9.8,9.8,76,0.00,,SKC,0.54,VWS V14.01,2013-05-25 23:00:00,
2013-05-25 19:02:00,48.4,41.5,29.76,WNW,292,9.8,9.8,77,0.00,,SKC,0.54,VWS V14.01,2013-05-25 23:02:00,
2013-05-25 19:03:00,48.4,41.8,29.76,WNW,292,9.8,9.8,78,0.00,,SKC,0.54,VWS V14.01,2013-05-25 23:03:00,
2013-05-25 19:04:00,48.4,41.8,29.76,WNW,292,9.8,9.8,78,0.00,,SKC,0.54,VWS V14.01,2013-05-25 23:04:00,
2013-05-25 19:06:00,48.4,41.8,29.76,West,270,13.9,13.9,78,0.00,,SKC,0.54,VWS V14.01,2013-05-25 23:06:00,
2013-05-25 19:08:00,48.4,42.5,29.76,West,270,13.9,13.9,80,0.00,,SKC,0.54,VWS V14.01,2013-05-25 23:08:00,
2013-05-25 19:10:00,48.2,41.7,29.76,West,270,13.9,13.9,78,0.00,,SKC,0.54,VWS V14.01,2013-05-25 23:10:00,
2013-05-25 19:12:00,48.4,41.8,29.76,WNW,292,10.7,13.9,78,0.00,,SKC,0.54,VWS V14.01,2013-05-25 23:12:00,
2013-05-25 19:13:00,48.2,42.0,29.79,WNW,292,10.7,13.9,79,0.00,,SKC,0.54,VWS V14.01,2013-05-25 23:13:00,
2013-05-25 19:14:00,48.2,42.0,29.80,WNW,292,10.7,10.7,79,0.00,,SKC,0.54,VWS V14.01,2013-05-25 23:14:00,
2013-05-25 19:16:00,48.4,42.5,29.80,WNW,292,10.7,10.7,80,0.00,,SKC,0.54,VWS V14.01,2013-05-25 23:16:00,
2013-05-25 19:18:00,48.4,42.5,29.79,WNW,292,10.7,10.7,80,0.00,,SKC,0.54,VWS V14.01,2013-05-25 23:18:00,
2013-05-25 19:20:00,48.4,42.5,29.80,WNW,292,12.3,12.3,80,0.00,,SKC,0.54,VWS V14.01,2013-05-25 23:20:00,
2013-05-25 19:22:00,48.2,42.0,29.80,WNW,292,12.3,12.3,79,0.00,,SKC,0.54,VWS V14.01,2013-05-25 23:22:00,
2013-05-25 19:23:00,48.4,42.2,29.79,WNW,292,12.3,12.3,79,0.00,,SKC,0.54,VWS V14.01,2013-05-25 23:23:00,
2013-05-25 19:24:00,48.4,42.2,29.80,WNW,292,12.3,12.3,79,0.00,,SKC,0.54,VWS V14.01,2013-05-25 23:24:00,
2013-05-25 19:26:00,48.4,42.5,29.80,North,0,10.1,12.3,80,0.00,,SKC,0.54,VWS V14.01,2013-05-25 23:26:00,
2013-05-25 19:28:00,48.4,42.5,29.79,North,0,10.1,10.1,80,0.00,,SKC,0.54,VWS V14.01,2013-05-25 23:28:00,
2013-05-25 19:30:00,48.4,42.8,29.80,North,0,10.1,10.1,81,0.00,,SKC,0.54,VWS V14.01,2013-05-25 23:30:00,
2013-05-25 19:32:00,48.4,42.5,29.80,North,0,10.1,10.1,80,0.00,,SKC,0.54,VWS V14.01,2013-05-25 23:32:00,
2013-05-25 19:33:00,48.4,42.5,29.79,NW,315,18.8,18.8,80,0.00,,SKC,0.54,VWS V14.01,2013-05-25 23:33:00,
2013-05-25 19:34:00,48.4,42.5,29.80,NW,315,18.8,18.8,80,0.00,,SKC,0.54,VWS V14.01,2013-05-25 23:34:00,
2013-05-25 19:36:00,48.4,42.5,29.80,NW,315,18.8,18.8,80,0.00,,SKC,0.54,VWS V14.01,2013-05-25 23:36:00,
2013-05-25 19:38:00,48.4,42.5,29.79,NW,315,18.8,18.8,80,0.00,,SKC,0.54,VWS V14.01,2013-05-25 23:38:00,
2013-05-25 19:40:00,48.4,42.5,29.80,NNW,338,17.5,18.8,80,0.00,,SKC,0.54,VWS V14.01,2013-05-25 23:40:00,
2013-05-25 19:42:00,48.4,42.2,29.80,NNW,338,17.5,17.5,79,0.00,,SKC,0.54,VWS V14.01,2013-05-25 23:42:00,
2013-05-25 19:43:00,48.4,41.8,29.79,NNW,338,17.5,17.5,78,0.00,,SKC,0.54,VWS V14.01,2013-05-25 23:43:00,
2013-05-25 19:44:00,48.4,41.8,29.80,NNW,338,17.5,17.5,78,0.00,,SKC,0.54,VWS V14.01,2013-05-25 23:44:00,
2013-05-25 19:46:00,48.4,42.2,29.80,NNW,338,17.5,17.5,79,0.00,,SKC,0.54,VWS V14.01,2013-05-25 23:46:00,
2013-05-25 19:48:00,48.4,42.2,29.79,WNW,292,14.8,14.8,79,0.00,,SKC,0.54,VWS V14.01,2013-05-25 23:48:00,
2013-05-25 19:50:00,48.4,42.2,29.80,WNW,292,14.8,14.8,79,0.00,,SKC,0.54,VWS V14.01,2013-05-25 23:50:00,
2013-05-25 19:52:00,48.4,42.2,29.80,WNW,292,14.8,14.8,79,0.00,,SKC,0.54,VWS V14.01,2013-05-25 23:52:00,
2013-05-25 19:53:00,48.4,41.8,29.79,WNW,292,14.8,14.8,78,0.00,,SKC,0.54,VWS V14.01,2013-05-25 23:53:00,
2013-05-25 19:54:00,48.4,41.5,29.80,WNW,292,14.8,14.8,77,0.00,,SKC,0.54,VWS V14.01,2013-05-25 23:54:00,
2013-05-25 19:56:00,48.4,41.5,29.80,WNW,292,14.8,14.8,77,0.00,,SKC,0.54,VWS V14.01,2013-05-25 23:56:00,
2013-05-25 19:58:00,48.4,41.5,29.79,WNW,292,14.8,14.8,77,0.00,,SKC,0.54,VWS V14.01,2013-05-25 23:58:00,
2013-05-25 20:00:00,48.4,41.2,29.80,WNW,292,14.8,14.8,76,0.00,,SKC,0.54,VWS V14.01,2013-05-26 00:00:00,
2013-05-25 20:02:00,48.4,41.5,29.80,NW,315,12.1,14.8,77,0.00,,SKC,0.54,VWS V14.01,2013-05-26 00:02:00,
2013-05-25 20:03:00,48.4,41.2,29.79,NW,315,12.1,12.1,76,0.00,,SKC,0.54,VWS V14.01,2013-05-26 00:03:00,
2013-05-25 20:04:00,48.4,41.5,29.80,NW,315,12.1,12.1,77,0.00,,SKC,0.54,VWS V14.01,2013-05-26 00:04:00,
2013-05-25 20:06:00,48.4,41.2,29.80,NW,315,12.1,12.1,76,0.00,,SKC,0.54,VWS V14.01,2013-05-26 00:06:00,
2013-05-25 20:08:00,48.4,41.2,29.79,West,270,10.1,12.1,76,0.00,,SKC,0.54,VWS V14.01,2013-05-26 00:08:00,
2013-05-25 20:10:00,48.4,41.2,29.80,West,270,10.1,10.1,76,0.00,,SKC,0.54,VWS V14.01,2013-05-26 00:10:00,
2013-05-25 20:12:00,48.6,41.7,29.80,West,270,10.1,10.1,77,0.00,,SKC,0.54,VWS V14.01,2013-05-26 00:12:00,
2013-05-25 20:13:00,48.4,41.5,29.82,West,270,10.1,10.1,77,0.00,,SKC,0.54,VWS V14.01,2013-05-26 00:13:00,
2013-05-25 20:14:00,48.4,41.5,29.82,West,270,10.1,10.1,77,0.00,,SKC,0.54,VWS V14.01,2013-05-26 00:14:00,
2013-05-25 20:16:00,48.4,41.8,29.82,NW,315,10.7,10.7,78,0.00,,SKC,0.54,VWS V14.01,2013-05-26 00:16:00,
2013-05-25 20:18:00,48.4,41.5,29.82,NW,315,10.7,10.7,77,0.00,,SKC,0.54,VWS V14.01,2013-05-26 00:18:00,
2013-05-25 20:20:00,48.4,41.8,29.82,NW,315,10.7,10.7,78,0.00,,SKC,0.54,VWS V14.01,2013-05-26 00:20:00,
2013-05-25 20:22:00,48.4,41.8,29.82,WNW,292,9.6,10.7,78,0.00,,SKC,0.54,VWS V14.01,2013-05-26 00:22:00,
2013-05-25 20:23:00,48.4,42.2,29.82,WNW,292,9.6,9.6,79,0.00,,SKC,0.54,VWS V14.01,2013-05-26 00:23:00,
2013-05-25 20:24:00,48.4,42.2,29.82,WNW,292,9.6,9.6,79,0.00,,SKC,0.54,VWS V14.01,2013-05-26 00:24:00,
2013-05-25 20:26:00,48.4,42.2,29.82,WNW,292,9.6,9.6,79,0.00,,SKC,0.54,VWS V14.01,2013-05-26 00:26:00,
2013-05-25 20:28:00,48.4,41.8,29.79,WNW,292,15.2,15.2,78,0.00,,SKC,0.54,VWS V14.01,2013-05-26 00:28:00,
2013-05-25 20:30:00,48.4,41.8,29.80,WNW,292,15.2,15.2,78,0.00,,SKC,0.54,VWS V14.01,2013-05-26 00:30:00,
2013-05-25 20:32:00,48.4,41.8,29.80,WNW,292,15.2,15.2,78,0.00,,SKC,0.54,VWS V14.01,2013-05-26 00:32:00,
2013-05-25 20:33:00,48.4,41.8,29.79,WNW,292,15.2,15.2,78,0.00,,SKC,0.54,VWS V14.01,2013-05-26 00:33:00,
2013-05-25 20:34:00,48.4,42.2,29.80,WNW,292,15.2,15.2,79,0.00,,SKC,0.54,VWS V14.01,2013-05-26 00:34:00,
2013-05-25 20:36:00,48.4,41.8,29.80,WNW,292,13.2,15.2,78,0.00,,SKC,0.54,VWS V14.01,2013-05-26 00:36:00,
2013-05-25 20:38:00,48.4,41.8,29.79,WNW,292,13.2,13.2,78,0.00,,SKC,0.54,VWS V14.01,2013-05-26 00:38:00,
2013-05-25 20:40:00,48.4,42.2,29.80,WNW,292,13.2,13.2,79,0.00,,SKC,0.54,VWS V14.01,2013-05-26 00:40:00,
2013-05-25 20:42:00,48.4,41.8,29.80,WNW,292,13.2,13.2,78,0.00,,SKC,0.54,VWS V14.01,2013-05-26 00:42:00,
2013-05-25 20:43:00,48.4,41.5,29.82,North,0,13.0,13.2,77,0.00,,SKC,0.54,VWS V14.01,2013-05-26 00:43:00,
2013-05-25 20:44:00,48.4,41.5,29.82,North,0,13.0,13.0,77,0.00,,SKC,0.54,VWS V14.01,2013-05-26 00:44:00,
2013-05-25 20:46:00,48.4,41.8,29.82,North,0,13.0,13.0,78,0.00,,SKC,0.54,VWS V14.01,2013-05-26 00:46:00,
2013-05-25 20:48:00,48.2,41.7,29.82,North,0,13.0,13.0,78,0.00,,SKC,0.54,VWS V14.01,2013-05-26 00:48:00,
2013-05-25 20:50:00,48.2,42.0,29.82,NW,315,11.0,13.0,79,0.00,,SKC,0.54,VWS V14.01,2013-05-26 00:50:00,
2013-05-25 20:52:00,48.4,42.2,29.82,NW,315,11.0,11.0,79,0.00,,SKC,0.54,VWS V14.01,2013-05-26 00:52:00,
2013-05-25 20:53:00,48.4,41.8,29.82,NW,315,11.0,11.0,78,0.00,,SKC,0.54,VWS V14.01,2013-05-26 00:53:00,
2013-05-25 20:54:00,48.2,41.7,29.82,NW,315,11.0,11.0,78,0.00,,SKC,0.54,VWS V14.01,2013-05-26 00:54:00,
2013-05-25 20:56:00,48.4,41.8,29.82,NW,315,11.0,11.0,78,0.00,,SKC,0.54,VWS V14.01,2013-05-26 00:56:00,
2013-05-25 20:58:00,48.4,41.8,29.82,WNW,292,12.8,12.8,78,0.00,,SKC,0.54,VWS V14.01,2013-05-26 00:58:00,
2013-05-25 21:00:00,48.4,41.8,29.82,WNW,292,12.8,12.8,78,0.00,,SKC,0.54,VWS V14.01,2013-05-26 01:00:00,
2013-05-25 21:02:00,48.4,41.5,29.82,WNW,292,12.8,12.8,77,0.00,,SKC,0.54,VWS V14.01,2013-05-26 01:02:00,
2013-05-25 21:03:00,48.4,41.5,29.82,WNW,292,23.0,23.0,77,0.00,,SKC,0.54,VWS V14.01,2013-05-26 01:03:00,
2013-05-25 21:04:00,48.4,41.5,29.82,WNW,292,23.0,23.0,77,0.00,,SKC,0.54,VWS V14.01,2013-05-26 01:04:00,
2013-05-25 21:06:00,48.4,41.5,29.82,WNW,292,23.0,23.0,77,0.00,,SKC,0.54,VWS V14.01,2013-05-26 01:06:00,
2013-05-25 21:08:00,48.4,41.2,29.82,WNW,292,23.0,23.0,76,0.00,,SKC,0.54,VWS V14.01,2013-05-26 01:08:00,
2013-05-25 21:10:00,48.4,41.2,29.82,WNW,292,23.0,23.0,76,0.00,,SKC,0.54,VWS V14.01,2013-05-26 01:10:00,
2013-05-25 21:12:00,48.4,41.2,29.82,NW,315,15.4,15.4,76,0.00,,SKC,0.54,VWS V14.01,2013-05-26 01:12:00,
2013-05-25 21:13:00,48.4,41.2,29.82,NW,315,15.4,15.4,76,0.00,,SKC,0.54,VWS V14.01,2013-05-26 01:13:00,
2013-05-25 21:14:00,48.4,41.2,29.82,NW,315,15.4,15.4,76,0.00,,SKC,0.54,VWS V14.01,2013-05-26 01:14:00,
2013-05-25 21:16:00,48.4,41.5,29.82,NW,315,15.4,15.4,77,0.00,,SKC,0.54,VWS V14.01,2013-05-26 01:16:00,
2013-05-25 21:18:00,48.4,41.2,29.82,NW,315,15.4,15.4,76,0.00,,SKC,0.54,VWS V14.01,2013-05-26 01:18:00,
2013-05-25 21:20:00,48.4,41.2,29.82,NW,315,15.4,15.4,76,0.00,,SKC,0.54,VWS V14.01,2013-05-26 01:20:00,
2013-05-25 21:22:00,48.4,41.2,29.82,NW,315,15.4,15.4,76,0.00,,SKC,0.54,VWS V14.01,2013-05-26 01:22:00,
2013-05-25 21:24:00,48.4,41.2,29.82,NW,315,15.4,15.4,76,0.00,,SKC,0.54,VWS V14.01,2013-05-26 01:24:00,
2013-05-25 21:26:00,48.4,41.2,29.82,NW,315,15.4,15.4,76,0.00,,SKC,0.54,VWS V14.01,2013-05-26 01:26:00,
2013-05-25 21:28:00,48.4,41.2,29.82,NW,315,15.4,15.4,76,0.00,,SKC,0.54,VWS V14.01,2013-05-26 01:28:00,
2013-05-25 21:29:00,48.4,41.5,29.82,NW,315,15.4,15.4,77,0.00,,SKC,0.54,VWS V14.01,2013-05-26 01:29:00,
2013-05-25 21:30:00,48.4,41.5,29.82,NW,315,15.4,15.4,77,0.00,,SKC,0.54,VWS V14.01,2013-05-26 01:30:00,
2013-05-25 21:32:00,48.4,41.2,29.82,NNW,338,13.2,15.4,76,0.00,,SKC,0.54,VWS V14.01,2013-05-26 01:32:00,
2013-05-25 21:34:00,48.4,41.2,29.82,NNW,338,13.2,13.2,76,0.00,,SKC,0.54,VWS V14.01,2013-05-26 01:34:00,
2013-05-25 21:36:00,48.4,41.2,29.82,NNW,338,13.2,13.2,76,0.00,,SKC,0.54,VWS V14.01,2013-05-26 01:36:00,
2013-05-25 21:38:00,48.4,40.8,29.82,NNW,338,13.2,13.2,75,0.00,,SKC,0.54,VWS V14.01,2013-05-26 01:38:00,
2013-05-25 21:39:00,48.4,41.2,29.82,WNW,292,8.5,13.2,76,0.00,,SKC,0.54,VWS V14.01,2013-05-26 01:39:00,
2013-05-25 21:40:00,48.4,41.2,29.82,WNW,292,8.5,13.2,76,0.00,,SKC,0.54,VWS V14.01,2013-05-26 01:40:00,
2013-05-25 21:42:00,48.4,40.8,29.82,WNW,292,8.5,8.5,75,0.00,,SKC,0.54,VWS V14.01,2013-05-26 01:42:00,
2013-05-25 21:44:00,48.4,40.5,29.82,WNW,292,8.5,8.5,74,0.00,,SKC,0.54,VWS V14.01,2013-05-26 01:44:00,
2013-05-25 21:46:00,48.2,40.7,29.82,WNW,292,9.0,9.0,75,0.00,,SKC,0.54,VWS V14.01,2013-05-26 01:46:00,
2013-05-25 21:48:00,48.2,40.7,29.82,WNW,292,9.0,9.0,75,0.00,,SKC,0.54,VWS V14.01,2013-05-26 01:48:00,
2013-05-25 21:49:00,48.2,40.7,29.82,WNW,292,9.0,9.0,75,0.00,,SKC,0.54,VWS V14.01,2013-05-26 01:49:00,
2013-05-25 21:50:00,48.2,40.7,29.82,WNW,292,9.0,9.0,75,0.00,,SKC,0.54,VWS V14.01,2013-05-26 01:50:00,
2013-05-25 21:52:00,48.2,41.0,29.82,WNW,292,9.0,9.0,76,0.00,,SKC,0.54,VWS V14.01,2013-05-26 01:52:00,
2013-05-25 21:54:00,48.2,40.7,29.82,WNW,292,9.0,9.0,75,0.00,,SKC,0.54,VWS V14.01,2013-05-26 01:54:00,
2013-05-25 21:56:00,48.4,40.5,29.82,WNW,292,9.0,9.0,74,0.00,,SKC,0.54,VWS V14.01,2013-05-26 01:56:00,
2013-05-25 21:58:00,48.4,40.8,29.82,WNW,292,9.0,9.0,75,0.00,,SKC,0.54,VWS V14.01,2013-05-26 01:58:00,
2013-05-25 21:59:00,48.4,40.8,29.82,NW,315,10.3,10.3,75,0.00,,SKC,0.54,VWS V14.01,2013-05-26 01:59:00,
2013-05-25 22:00:00,48.4,40.8,29.82,NW,315,10.3,10.3,75,0.00,,SKC,0.54,VWS V14.01,2013-05-26 02:00:00,
2013-05-25 22:02:00,48.4,40.8,29.82,NW,315,10.3,10.3,75,0.00,,SKC,0.54,VWS V14.01,2013-05-26 02:02:00,
2013-05-25 22:04:00,48.4,41.2,29.82,NW,315,10.3,10.3,76,0.00,,SKC,0.54,VWS V14.01,2013-05-26 02:04:00,
2013-05-25 22:06:00,48.4,41.2,29.82,NW,315,10.3,10.3,76,0.00,,SKC,0.54,VWS V14.01,2013-05-26 02:06:00,
2013-05-25 22:08:00,48.4,40.8,29.82,NW,315,14.8,14.8,75,0.00,,SKC,0.54,VWS V14.01,2013-05-26 02:08:00,
2013-05-25 22:09:00,48.4,40.8,29.82,NW,315,14.8,14.8,75,0.00,,SKC,0.54,VWS V14.01,2013-05-26 02:09:00,
2013-05-25 22:10:00,48.4,40.5,29.82,NW,315,14.8,14.8,74,0.00,,SKC,0.54,VWS V14.01,2013-05-26 02:10:00,
2013-05-25 22:12:00,48.4,40.8,29.82,NW,315,14.8,14.8,75,0.00,,SKC,0.54,VWS V14.01,2013-05-26 02:12:00,
2013-05-25 22:14:00,48.4,40.5,29.82,NW,315,10.5,14.8,74,0.00,,SKC,0.54,VWS V14.01,2013-05-26 02:14:00,
2013-05-25 22:16:00,48.4,40.5,29.82,NW,315,10.5,10.5,74,0.00,,SKC,0.54,VWS V14.01,2013-05-26 02:16:00,
2013-05-25 22:18:00,48.4,40.8,29.82,NW,315,10.5,10.5,75,0.00,,SKC,0.54,VWS V14.01,2013-05-26 02:18:00,
2013-05-25 22:19:00,48.4,40.8,29.82,NW,315,10.5,10.5,75,0.00,,SKC,0.54,VWS V14.01,2013-05-26 02:19:00,
2013-05-25 22:20:00,48.4,40.8,29.82,NW,315,10.5,10.5,75,0.00,,SKC,0.54,VWS V14.01,2013-05-26 02:20:00,
2013-05-25 22:22:00,48.4,40.8,29.82,NW,315,10.5,10.5,75,0.00,,SKC,0.54,VWS V14.01,2013-05-26 02:22:00,
2013-05-25 22:24:00,48.4,40.8,29.82,NW,315,10.5,10.5,75,0.00,,SKC,0.54,VWS V14.01,2013-05-26 02:24:00,
2013-05-25 22:26:00,48.4,40.5,29.82,NW,315,10.5,10.5,74,0.00,,SKC,0.54,VWS V14.01,2013-05-26 02:26:00,
2013-05-25 22:28:00,48.4,40.5,29.82,NW,315,10.5,10.5,74,0.00,,SKC,0.54,VWS V14.01,2013-05-26 02:28:00,
2013-05-25 22:29:00,48.4,40.5,29.82,NW,315,10.5,10.5,74,0.00,,SKC,0.54,VWS V14.01,2013-05-26 02:29:00,
2013-05-25 22:30:00,48.4,40.5,29.82,NW,315,10.5,10.5,74,0.00,,SKC,0.54,VWS V14.01,2013-05-26 02:30:00,
2013-05-25 22:32:00,48.4,40.5,29.82,NW,315,10.5,10.5,74,0.00,,SKC,0.54,VWS V14.01,2013-05-26 02:32:00,
2013-05-25 22:34:00,48.4,40.1,29.82,West,270,10.5,10.5,73,0.00,,SKC,0.54,VWS V14.01,2013-05-26 02:34:00,
2013-05-25 22:36:00,48.4,40.1,29.82,West,270,10.5,10.5,73,0.00,,SKC,0.54,VWS V14.01,2013-05-26 02:36:00,
2013-05-25 22:38:00,48.4,40.5,29.82,West,270,10.5,10.5,74,0.00,,SKC,0.54,VWS V14.01,2013-05-26 02:38:00,
2013-05-25 22:39:00,48.4,40.5,29.82,West,270,10.5,10.5,74,0.00,,SKC,0.54,VWS V14.01,2013-05-26 02:39:00,
2013-05-25 22:40:00,48.4,40.5,29.82,West,270,10.5,10.5,74,0.00,,SKC,0.54,VWS V14.01,2013-05-26 02:40:00,
2013-05-25 22:42:00,48.4,40.1,29.82,West,270,10.5,10.5,73,0.00,,SKC,0.54,VWS V14.01,2013-05-26 02:42:00,
2013-05-25 22:44:00,48.4,39.8,29.82,West,270,10.5,10.5,72,0.00,,SKC,0.54,VWS V14.01,2013-05-26 02:44:00,
2013-05-25 22:46:00,48.4,40.1,29.82,West,270,10.5,10.5,73,0.00,,SKC,0.54,VWS V14.01,2013-05-26 02:46:00,
2013-05-25 22:48:00,48.4,40.5,29.82,West,270,10.5,10.5,74,0.00,,SKC,0.54,VWS V14.01,2013-05-26 02:48:00,
2013-05-25 22:49:00,48.4,40.1,29.82,West,270,16.3,16.3,73,0.00,,SKC,0.54,VWS V14.01,2013-05-26 02:49:00,
2013-05-25 22:50:00,48.4,40.1,29.82,West,270,16.3,16.3,73,0.00,,SKC,0.54,VWS V14.01,2013-05-26 02:50:00,
2013-05-25 22:52:00,48.4,39.8,29.82,West,270,16.3,16.3,72,0.00,,SKC,0.54,VWS V14.01,2013-05-26 02:52:00,
2013-05-25 22:54:00,48.2,40.0,29.82,West,270,16.3,16.3,73,0.00,,SKC,0.54,VWS V14.01,2013-05-26 02:54:00,
2013-05-25 22:56:00,48.2,39.6,29.82,WNW,292,14.3,16.3,72,0.00,,SKC,4.36,VWS V14.01,2013-05-26 02:56:00,
2013-05-25 22:58:00,48.2,39.6,29.82,WNW,292,14.3,14.3,72,0.00,,SKC,4.36,VWS V14.01,2013-05-26 02:58:00,
2013-05-25 22:59:00,48.2,40.0,29.82,WNW,292,14.3,14.3,73,0.00,,SKC,4.36,VWS V14.01,2013-05-26 02:59:00,
2013-05-25 23:00:00,48.2,40.0,29.82,WNW,292,14.3,14.3,73,0.00,,SKC,4.36,VWS V14.01,2013-05-26 03:00:00,
2013-05-25 23:02:00,48.2,40.0,29.82,WNW,292,14.3,14.3,73,0.00,,SKC,4.36,VWS V14.01,2013-05-26 03:02:00,
2013-05-25 23:04:00,48.2,40.0,29.82,WNW,292,10.7,10.7,73,0.00,,SKC,4.36,VWS V14.01,2013-05-26 03:04:00,
2013-05-25 23:06:00,48.2,39.6,29.82,WNW,292,10.7,10.7,72,0.00,,SKC,4.36,VWS V14.01,2013-05-26 03:06:00,
2013-05-25 23:08:00,48.2,39.2,29.82,WNW,292,10.7,10.7,71,0.00,,SKC,4.36,VWS V14.01,2013-05-26 03:08:00,
2013-05-25 23:10:00,48.2,39.6,29.82,NW,315,12.5,12.5,72,0.00,,SKC,4.36,VWS V14.01,2013-05-26 03:10:00,
2013-05-25 23:12:00,48.2,39.6,29.82,NW,315,12.5,12.5,72,0.00,,SKC,4.36,VWS V14.01,2013-05-26 03:12:00,
2013-05-25 23:14:00,48.2,39.6,29.82,NW,315,12.5,12.5,72,0.00,,SKC,4.36,VWS V14.01,2013-05-26 03:14:00,
2013-05-25 23:15:00,48.2,39.6,29.82,NW,315,12.5,12.5,72,0.00,,SKC,4.36,VWS V14.01,2013-05-26 03:15:00,
2013-05-25 23:16:00,48.2,39.6,29.82,NW,315,12.5,12.5,72,0.00,,SKC,4.36,VWS V14.01,2013-05-26 03:16:00,
2013-05-25 23:18:00,48.2,39.6,29.82,SW,225,12.3,12.3,72,0.00,,SKC,4.36,VWS V14.01,2013-05-26 03:18:00,
2013-05-25 23:20:00,48.2,40.0,29.82,SW,225,12.3,12.3,73,0.00,,SKC,4.36,VWS V14.01,2013-05-26 03:20:00,
2013-05-25 23:22:00,48.2,40.0,29.82,SW,225,12.3,12.3,73,0.00,,SKC,4.36,VWS V14.01,2013-05-26 03:22:00,
2013-05-25 23:24:00,48.2,39.6,29.82,SW,225,12.3,12.3,72,0.00,,SKC,4.36,VWS V14.01,2013-05-26 03:24:00,
2013-05-25 23:25:00,48.2,39.6,29.82,NW,315,10.3,12.3,72,0.00,,SKC,4.36,VWS V14.01,2013-05-26 03:25:00,
2013-05-25 23:26:00,48.2,39.6,29.82,NW,315,10.3,10.3,72,0.00,,SKC,4.36,VWS V14.01,2013-05-26 03:26:00,
2013-05-25 23:28:00,48.2,39.2,29.82,NW,315,10.3,10.3,71,0.00,,SKC,4.36,VWS V14.01,2013-05-26 03:28:00,
2013-05-25 23:30:00,48.2,39.6,29.82,NW,315,10.3,10.3,72,0.00,,SKC,4.36,VWS V14.01,2013-05-26 03:30:00,
2013-05-25 23:32:00,48.4,39.8,29.82,West,270,10.5,10.5,72,0.00,,SKC,4.36,VWS V14.01,2013-05-26 03:32:00,
2013-05-25 23:34:00,48.4,40.1,29.82,West,270,10.5,10.5,73,0.00,,SKC,4.36,VWS V14.01,2013-05-26 03:34:00,
2013-05-25 23:35:00,48.4,40.1,29.82,West,270,10.5,10.5,73,0.00,,SKC,4.36,VWS V14.01,2013-05-26 03:35:00,
2013-05-25 23:36:00,48.4,40.1,29.82,West,270,10.5,10.5,73,0.00,,SKC,4.36,VWS V14.01,2013-05-26 03:36:00,
2013-05-25 23:38:00,48.4,40.1,29.82,West,270,10.7,10.7,73,0.00,,SKC,4.36,VWS V14.01,2013-05-26 03:38:00,
2013-05-25 23:40:00,48.4,40.1,29.82,West,270,10.7,10.7,73,0.00,,SKC,4.36,VWS V14.01,2013-05-26 03:40:00,
2013-05-25 23:42:00,48.4,40.1,29.82,West,270,10.7,10.7,73,0.00,,SKC,4.36,VWS V14.01,2013-05-26 03:42:00,
2013-05-25 23:44:00,48.4,40.1,29.82,West,270,10.7,10.7,73,0.00,,SKC,4.36,VWS V14.01,2013-05-26 03:44:00,
2013-05-25 23:45:00,48.4,40.1,29.82,NW,315,7.8,10.7,73,0.00,,SKC,4.36,VWS V14.01,2013-05-26 03:45:00,
2013-05-25 23:46:00,48.4,40.1,29.82,NW,315,7.8,7.8,73,0.00,,SKC,4.36,VWS V14.01,2013-05-26 03:46:00,
2013-05-25 23:48:00,48.4,40.5,29.82,NW,315,7.8,7.8,74,0.00,,SKC,4.36,VWS V14.01,2013-05-26 03:48:00,
2013-05-25 23:50:00,48.4,40.1,29.82,NW,315,7.8,7.8,73,0.00,,SKC,4.36,VWS V14.01,2013-05-26 03:50:00,
2013-05-25 23:52:00,48.4,40.1,29.82,NW,315,10.7,10.7,73,0.00,,SKC,4.36,VWS V14.01,2013-05-26 03:52:00,
2013-05-25 23:54:00,48.4,40.1,29.82,NW,315,10.7,10.7,73,0.00,,SKC,4.36,VWS V14.01,2013-05-26 03:54:00,
2013-05-25 23:55:00,48.4,40.1,29.82,NW,315,10.7,10.7,73,0.00,,SKC,4.36,VWS V14.01,2013-05-26 03:55:00,
2013-05-25 23:56:00,48.4,40.1,29.82,NW,315,10.7,10.7,73,0.00,,SKC,4.36,VWS V14.01,2013-05-26 03:56:00,
2013-05-25 23:58:00,48.4,40.5,29.80,NW,315,10.7,10.7,74,0.00,,SKC,4.36,VWS V14.01,2013-05-26 03:58:00,